Terminal Aerodrome Forecast
Issued by NWS

Home | Current Version | Previous Version | Text Only | Print | Product List | Glossary On
Versions: 1 2 3 4 5 6 7 8 9 10 11 12 13
944
FTUS46 KPDT 250538
TAFYKM
TAF
KYKM 250538Z 2506/2606 28007KT P6SM SKC
     FM251900 VRB06KT P6SM FEW100
     FM260400 25007KT P6SM FEW250=

USA.gov is the U.S. government's official web portal to all federal, state and local government web resources and services.